<?xml version="1.0" encoding="UTF-8" standalone="no" ?>
<gpx xmlns="http://www.topografix.com/GPX/1/1" xmlns:xsi="http://www.w3.org/2001/XMLSchema-instance" xsi:schemaLocation="http://www.topografix.com/GPX/1/1 http://www.topografix.com/GPX/1/1/gpx.xsd" version="1.1" creator="VisuGPX - https://www.visugpx.com">
  <metadata>
    <name>Plouharnel_carnac_17-23km</name>
    <desc><![CDATA[gnerando idor:8156854_10164584]]></desc>
  </metadata>
  <trk>
    <name><![CDATA[Plouharnel_17.2km-8156854]]></name>
    <extensions>
      <line xmlns="http://www.topografix.com/GPX/gpx_style/0/2">
        <color>0000FF</color>
        <width>4</width>
      </line>
    </extensions>
    <trkseg>
      <trkpt lat="47.59812" lon="-3.11239">
        <ele>23</ele>
        <time>2023-11-11T06:11:40Z</time>
      </trkpt>
      <trkpt lat="47.59731" lon="-3.11252">
        <ele>24</ele>
        <time>2023-11-11T06:13:29Z</time>
      </trkpt>
      <trkpt lat="47.59621" lon="-3.11256">
        <ele>23</ele>
        <time>2023-11-11T06:15:56Z</time>
      </trkpt>
      <trkpt lat="47.5965" lon="-3.11454">
        <ele>22</ele>
        <time>2023-11-11T06:18:58Z</time>
      </trkpt>
      <trkpt lat="47.59609" lon="-3.11647">
        <ele>15</ele>
        <time>2023-11-11T06:22:00Z</time>
      </trkpt>
      <trkpt lat="47.59641" lon="-3.1175">
        <ele>14</ele>
        <time>2023-11-11T06:23:42Z</time>
      </trkpt>
      <trkpt lat="47.59736" lon="-3.11823">
        <ele>12</ele>
        <time>2023-11-11T06:26:05Z</time>
      </trkpt>
      <trkpt lat="47.59786" lon="-3.11767">
        <ele>15</ele>
        <time>2023-11-11T06:27:28Z</time>
      </trkpt>
      <trkpt lat="47.59878" lon="-3.11754">
        <ele>18</ele>
        <time>2023-11-11T06:29:32Z</time>
      </trkpt>
      <trkpt lat="47.59864" lon="-3.12024">
        <ele>14</ele>
        <time>2023-11-11T06:33:35Z</time>
      </trkpt>
      <trkpt lat="47.59913" lon="-3.12136">
        <ele>17</ele>
        <time>2023-11-11T06:35:36Z</time>
      </trkpt>
      <trkpt lat="47.59872" lon="-3.122">
        <ele>15</ele>
        <time>2023-11-11T06:36:55Z</time>
      </trkpt>
      <trkpt lat="47.59861" lon="-3.1235">
        <ele>11</ele>
        <time>2023-11-11T06:39:11Z</time>
      </trkpt>
      <trkpt lat="47.59994" lon="-3.12385">
        <ele>13</ele>
        <time>2023-11-11T06:42:11Z</time>
      </trkpt>
      <trkpt lat="47.60179" lon="-3.12239">
        <ele>17</ele>
        <time>2023-11-11T06:46:51Z</time>
      </trkpt>
      <trkpt lat="47.60373" lon="-3.12226">
        <ele>17</ele>
        <time>2023-11-11T06:51:10Z</time>
      </trkpt>
      <trkpt lat="47.60639" lon="-3.12114">
        <ele>23</ele>
        <time>2023-11-11T06:57:19Z</time>
      </trkpt>
      <trkpt lat="47.61151" lon="-3.11784">
        <ele>18</ele>
        <time>2023-11-11T07:09:44Z</time>
      </trkpt>
      <trkpt lat="47.61192" lon="-3.11801">
        <ele>18</ele>
        <time>2023-11-11T07:10:41Z</time>
      </trkpt>
      <trkpt lat="47.61397" lon="-3.11531">
        <ele>18</ele>
        <time>2023-11-11T07:16:46Z</time>
      </trkpt>
      <trkpt lat="47.61687" lon="-3.11217">
        <ele>21</ele>
        <time>2023-11-11T07:24:46Z</time>
      </trkpt>
      <trkpt lat="47.61979" lon="-3.10981">
        <ele>19</ele>
        <time>2023-11-11T07:32:09Z</time>
      </trkpt>
      <trkpt lat="47.61982" lon="-3.11312">
        <ele>20</ele>
        <time>2023-11-11T07:37:07Z</time>
      </trkpt>
      <trkpt lat="47.61909" lon="-3.11462">
        <ele>19</ele>
        <time>2023-11-11T07:39:53Z</time>
      </trkpt>
      <trkpt lat="47.61846" lon="-3.11522">
        <ele>17</ele>
        <time>2023-11-11T07:41:33Z</time>
      </trkpt>
      <trkpt lat="47.61788" lon="-3.11707">
        <ele>17</ele>
        <time>2023-11-11T07:44:37Z</time>
      </trkpt>
      <trkpt lat="47.61689" lon="-3.11887">
        <ele>19</ele>
        <time>2023-11-11T07:48:06Z</time>
      </trkpt>
      <trkpt lat="47.61663" lon="-3.12385">
        <ele>18</ele>
        <time>2023-11-11T07:55:35Z</time>
      </trkpt>
      <trkpt lat="47.61782" lon="-3.1238">
        <ele>18</ele>
        <time>2023-11-11T07:58:14Z</time>
      </trkpt>
      <trkpt lat="47.61901" lon="-3.12432">
        <ele>19</ele>
        <time>2023-11-11T08:01:00Z</time>
      </trkpt>
      <trkpt lat="47.62051" lon="-3.12462">
        <ele>18</ele>
        <time>2023-11-11T08:04:22Z</time>
      </trkpt>
      <trkpt lat="47.62039" lon="-3.12655">
        <ele>18</ele>
        <time>2023-11-11T08:07:16Z</time>
      </trkpt>
      <trkpt lat="47.61967" lon="-3.12823">
        <ele>18</ele>
        <time>2023-11-11T08:10:15Z</time>
      </trkpt>
      <trkpt lat="47.61976" lon="-3.13119">
        <ele>17</ele>
        <time>2023-11-11T08:14:42Z</time>
      </trkpt>
      <trkpt lat="47.61802" lon="-3.13093">
        <ele>21</ele>
        <time>2023-11-11T08:18:35Z</time>
      </trkpt>
      <trkpt lat="47.61689" lon="-3.13024">
        <ele>20</ele>
        <time>2023-11-11T08:21:18Z</time>
      </trkpt>
      <trkpt lat="47.61571" lon="-3.12805">
        <ele>17</ele>
        <time>2023-11-11T08:25:30Z</time>
      </trkpt>
      <trkpt lat="47.61458" lon="-3.1278">
        <ele>17</ele>
        <time>2023-11-11T08:28:03Z</time>
      </trkpt>
      <trkpt lat="47.61377" lon="-3.12702">
        <ele>17</ele>
        <time>2023-11-11T08:30:12Z</time>
      </trkpt>
      <trkpt lat="47.61299" lon="-3.12685">
        <ele>17</ele>
        <time>2023-11-11T08:31:57Z</time>
      </trkpt>
      <trkpt lat="47.61264" lon="-3.12569">
        <ele>19</ele>
        <time>2023-11-11T08:33:51Z</time>
      </trkpt>
      <trkpt lat="47.61172" lon="-3.12492">
        <ele>18</ele>
        <time>2023-11-11T08:36:12Z</time>
      </trkpt>
      <trkpt lat="47.61091" lon="-3.12651">
        <ele>20</ele>
        <time>2023-11-11T08:39:11Z</time>
      </trkpt>
      <trkpt lat="47.61041" lon="-3.13106">
        <ele>20</ele>
        <time>2023-11-11T08:46:06Z</time>
      </trkpt>
      <trkpt lat="47.60969" lon="-3.13222">
        <ele>21</ele>
        <time>2023-11-11T08:48:28Z</time>
      </trkpt>
      <trkpt lat="47.60966" lon="-3.13303">
        <ele>20</ele>
        <time>2023-11-11T08:49:41Z</time>
      </trkpt>
      <trkpt lat="47.60842" lon="-3.13462">
        <ele>21</ele>
        <time>2023-11-11T08:53:20Z</time>
      </trkpt>
      <trkpt lat="47.60848" lon="-3.13702">
        <ele>16</ele>
        <time>2023-11-11T08:56:56Z</time>
      </trkpt>
      <trkpt lat="47.60758" lon="-3.13677">
        <ele>15</ele>
        <time>2023-11-11T08:58:58Z</time>
      </trkpt>
      <trkpt lat="47.60668" lon="-3.13561">
        <ele>15</ele>
        <time>2023-11-11T09:01:37Z</time>
      </trkpt>
      <trkpt lat="47.60619" lon="-3.13496">
        <ele>14</ele>
        <time>2023-11-11T09:03:05Z</time>
      </trkpt>
      <trkpt lat="47.60535" lon="-3.13445">
        <ele>10</ele>
        <time>2023-11-11T09:05:06Z</time>
      </trkpt>
      <trkpt lat="47.60486" lon="-3.13359">
        <ele>8</ele>
        <time>2023-11-11T09:06:47Z</time>
      </trkpt>
      <trkpt lat="47.60396" lon="-3.13247">
        <ele>8</ele>
        <time>2023-11-11T09:09:24Z</time>
      </trkpt>
      <trkpt lat="47.60252" lon="-3.1317">
        <ele>11</ele>
        <time>2023-11-11T09:12:48Z</time>
      </trkpt>
      <trkpt lat="47.60156" lon="-3.12951">
        <ele>15</ele>
        <time>2023-11-11T09:16:43Z</time>
      </trkpt>
      <trkpt lat="47.60162" lon="-3.12698">
        <ele>18</ele>
        <time>2023-11-11T09:20:31Z</time>
      </trkpt>
      <trkpt lat="47.60107" lon="-3.12432">
        <ele>15</ele>
        <time>2023-11-11T09:24:41Z</time>
      </trkpt>
      <trkpt lat="47.60034" lon="-3.12561">
        <ele>11</ele>
        <time>2023-11-11T09:27:13Z</time>
      </trkpt>
      <trkpt lat="47.59916" lon="-3.12582">
        <ele>6</ele>
        <time>2023-11-11T09:29:52Z</time>
      </trkpt>
      <trkpt lat="47.59896" lon="-3.12428">
        <ele>9</ele>
        <time>2023-11-11T09:32:13Z</time>
      </trkpt>
      <trkpt lat="47.59806" lon="-3.1235">
        <ele>9</ele>
        <time>2023-11-11T09:34:32Z</time>
      </trkpt>
      <trkpt lat="47.5976" lon="-3.12411">
        <ele>3</ele>
        <time>2023-11-11T09:35:54Z</time>
      </trkpt>
      <trkpt lat="47.59557" lon="-3.122">
        <ele>1</ele>
        <time>2023-11-11T09:41:25Z</time>
      </trkpt>
      <trkpt lat="47.59618" lon="-3.12076">
        <ele>5</ele>
        <time>2023-11-11T09:43:43Z</time>
      </trkpt>
      <trkpt lat="47.59543" lon="-3.1211">
        <ele>3</ele>
        <time>2023-11-11T09:45:28Z</time>
      </trkpt>
      <trkpt lat="47.59427" lon="-3.12102">
        <ele>2</ele>
        <time>2023-11-11T09:48:03Z</time>
      </trkpt>
      <trkpt lat="47.59334" lon="-3.1208">
        <ele>3</ele>
        <time>2023-11-11T09:50:08Z</time>
      </trkpt>
      <trkpt lat="47.59349" lon="-3.1193">
        <ele>2</ele>
        <time>2023-11-11T09:52:25Z</time>
      </trkpt>
      <trkpt lat="47.59323" lon="-3.11831">
        <ele>2</ele>
        <time>2023-11-11T09:54:00Z</time>
      </trkpt>
      <trkpt lat="47.59244" lon="-3.11981">
        <ele>1</ele>
        <time>2023-11-11T09:56:52Z</time>
      </trkpt>
      <trkpt lat="47.59114" lon="-3.11973">
        <ele>2</ele>
        <time>2023-11-11T09:59:45Z</time>
      </trkpt>
      <trkpt lat="47.59105" lon="-3.11711">
        <ele>4</ele>
        <time>2023-11-11T10:03:41Z</time>
      </trkpt>
      <trkpt lat="47.59056" lon="-3.11565">
        <ele>4</ele>
        <time>2023-11-11T10:06:08Z</time>
      </trkpt>
      <trkpt lat="47.59048" lon="-3.11402">
        <ele>7</ele>
        <time>2023-11-11T10:08:35Z</time>
      </trkpt>
      <trkpt lat="47.589" lon="-3.11368">
        <ele>3</ele>
        <time>2023-11-11T10:11:55Z</time>
      </trkpt>
      <trkpt lat="47.58822" lon="-3.1117">
        <ele>6</ele>
        <time>2023-11-11T10:15:21Z</time>
      </trkpt>
      <trkpt lat="47.58773" lon="-3.11072">
        <ele>4</ele>
        <time>2023-11-11T10:17:11Z</time>
      </trkpt>
      <trkpt lat="47.58804" lon="-3.10908">
        <ele>10</ele>
        <time>2023-11-11T10:19:45Z</time>
      </trkpt>
      <trkpt lat="47.58868" lon="-3.10887">
        <ele>11</ele>
        <time>2023-11-11T10:21:12Z</time>
      </trkpt>
      <trkpt lat="47.58857" lon="-3.10775">
        <ele>12</ele>
        <time>2023-11-11T10:22:54Z</time>
      </trkpt>
      <trkpt lat="47.58784" lon="-3.10737">
        <ele>12</ele>
        <time>2023-11-11T10:24:37Z</time>
      </trkpt>
      <trkpt lat="47.58686" lon="-3.10767">
        <ele>9</ele>
        <time>2023-11-11T10:26:51Z</time>
      </trkpt>
      <trkpt lat="47.58596" lon="-3.11016">
        <ele>1</ele>
        <time>2023-11-11T10:31:05Z</time>
      </trkpt>
      <trkpt lat="47.58503" lon="-3.10874">
        <ele>1</ele>
        <time>2023-11-11T10:34:03Z</time>
      </trkpt>
      <trkpt lat="47.58515" lon="-3.10561">
        <ele>2</ele>
        <time>2023-11-11T10:38:45Z</time>
      </trkpt>
      <trkpt lat="47.58477" lon="-3.10552">
        <ele>1</ele>
        <time>2023-11-11T10:39:37Z</time>
      </trkpt>
      <trkpt lat="47.58515" lon="-3.10488">
        <ele>2</ele>
        <time>2023-11-11T10:40:53Z</time>
      </trkpt>
      <trkpt lat="47.58512" lon="-3.10389">
        <ele>2</ele>
        <time>2023-11-11T10:42:23Z</time>
      </trkpt>
      <trkpt lat="47.58448" lon="-3.10316">
        <ele>2</ele>
        <time>2023-11-11T10:44:10Z</time>
      </trkpt>
      <trkpt lat="47.58564" lon="-3.10059">
        <ele>8</ele>
        <time>2023-11-11T10:48:49Z</time>
      </trkpt>
      <trkpt lat="47.58608" lon="-3.09951">
        <ele>9</ele>
        <time>2023-11-11T10:50:42Z</time>
      </trkpt>
      <trkpt lat="47.58735" lon="-3.09964">
        <ele>15</ele>
        <time>2023-11-11T10:53:32Z</time>
      </trkpt>
      <trkpt lat="47.58917" lon="-3.10024">
        <ele>13</ele>
        <time>2023-11-11T10:57:41Z</time>
      </trkpt>
      <trkpt lat="47.58969" lon="-3.10441">
        <ele>16</ele>
        <time>2023-11-11T11:04:03Z</time>
      </trkpt>
      <trkpt lat="47.59201" lon="-3.10166">
        <ele>15</ele>
        <time>2023-11-11T11:10:39Z</time>
      </trkpt>
      <trkpt lat="47.5947" lon="-3.10119">
        <ele>18</ele>
        <time>2023-11-11T11:16:40Z</time>
      </trkpt>
      <trkpt lat="47.59545" lon="-3.10145">
        <ele>18</ele>
        <time>2023-11-11T11:18:23Z</time>
      </trkpt>
      <trkpt lat="47.59598" lon="-3.10205">
        <ele>18</ele>
        <time>2023-11-11T11:19:52Z</time>
      </trkpt>
      <trkpt lat="47.59667" lon="-3.10076">
        <ele>21</ele>
        <time>2023-11-11T11:22:20Z</time>
      </trkpt>
      <trkpt lat="47.59925" lon="-3.10012">
        <ele>21</ele>
        <time>2023-11-11T11:28:09Z</time>
      </trkpt>
      <trkpt lat="47.60003" lon="-3.10059">
        <ele>20</ele>
        <time>2023-11-11T11:30:02Z</time>
      </trkpt>
      <trkpt lat="47.60014" lon="-3.10342">
        <ele>24</ele>
        <time>2023-11-11T11:34:17Z</time>
      </trkpt>
      <trkpt lat="47.60199" lon="-3.10303">
        <ele>25</ele>
        <time>2023-11-11T11:38:26Z</time>
      </trkpt>
      <trkpt lat="47.60113" lon="-3.10569">
        <ele>21</ele>
        <time>2023-11-11T11:42:52Z</time>
      </trkpt>
      <trkpt lat="47.59849" lon="-3.11067">
        <ele>23</ele>
        <time>2023-11-11T11:52:22Z</time>
      </trkpt>
      <trkpt lat="47.59812" lon="-3.11248">
        <ele>23</ele>
        <time>2023-11-11T11:55:12Z</time>
      </trkpt>
    </trkseg>
  </trk>
</gpx>